Terminal Aerodrome Forecast
Issued by NWS Wilmington, NC

Home | Current Version | Previous Version | Text Only | Print | Product List | Glossary On
Versions: 1 2 3 4 5 6 7 8 9 10 11 12 13 14
977
FTUS42 KILM 250520
TAFFLO
TAF
KFLO 250520Z 2506/2606 20003KT P6SM SKC
     FM250800 20002KT 1SM BR VV002
      TEMPO 2508/2510 5SM BR FEW002 FEW050
     FM251300 20006KT P6SM SCT250
     FM251600 21011KT P6SM SCT250
     FM252000 25011G18KT P6SM SCT050
     FM260000 31011KT P6SM SKC=

USA.gov is the U.S. government's official web portal to all federal, state and local government web resources and services.